Time;durP1;ratioP1;P1;durP2;ratioP2;P2;SDS_P1;SDS_P2;PMS_P1;PMS_P2;Temp;Humidity;BMP_temperature;BMP_pressure;BME280_temperature;BME280_humidity;BME280_pressure;Samples;Min_cycle;Max_cycle;Signal;HPM_P1;HPM_P2
2024/02/22 00:01:12;;;;;;;0.85;0.73;;;;;;;;;;4999719;28;20041;-84
2024/02/22 00:03:39;;;;;;;0.80;0.80;;;;;;;;;;4992855;28;20049;-83
2024/02/22 00:06:07;;;;;;;2.28;1.00;;;;;;;;;;4992544;28;20065;-83
2024/02/22 00:08:35;;;;;;;2.35;1.10;;;;;;;;;;4995068;28;20050;-83
2024/02/22 00:11:03;;;;;;;2.95;1.23;;;;;;;;;;5006797;28;20062;-83
2024/02/22 00:13:31;;;;;;;3.42;1.17;;;;;;;;;;5006957;28;20048;-84
2024/02/22 00:15:58;;;;;;;1.25;0.90;;;;;;;;;;5000130;28;20080;-83
2024/02/22 00:18:25;;;;;;;0.75;0.73;;;;;;;;;;5009175;28;20048;-83
2024/02/22 00:20:53;;;;;;;2.83;1.10;;;;;;;;;;4984326;28;20069;-84
2024/02/22 00:23:20;;;;;;;0.90;0.90;;;;;;;;;;4992764;28;20057;-84
2024/02/22 00:25:47;;;;;;;2.70;0.90;;;;;;;;;;4992107;28;20057;-84
2024/02/22 00:28:16;;;;;;;1.70;1.13;;;;;;;;;;4989412;28;20050;-84
2024/02/22 00:30:44;;;;;;;1.35;0.85;;;;;;;;;;4988469;28;20519;-84
2024/02/22 00:33:11;;;;;;;0.82;0.82;;;;;;;;;;4990154;28;20050;-84
2024/02/22 00:35:38;;;;;;;1.48;0.95;;;;;;;;;;4991331;28;20053;-83
2024/02/22 00:38:05;;;;;;;1.40;1.00;;;;;;;;;;4998724;28;20069;-84
2024/02/22 00:40:34;;;;;;;1.60;1.00;;;;;;;;;;4996364;28;20128;-84
2024/02/22 00:43:04;;;;;;;4.30;1.20;;;;;;;;;;5001947;28;20075;-83
2024/02/22 00:45:34;;;;;;;2.50;1.00;;;;;;;;;;4991074;28;20062;-84
2024/02/22 00:48:02;;;;;;;1.20;1.10;;;;;;;;;;4992507;28;20060;-84
2024/02/22 00:50:30;;;;;;;0.90;0.90;;;;;;;;;;4989149;28;20064;-85
2024/02/22 00:52:58;;;;;;;1.85;0.90;;;;;;;;;;4988405;28;20046;-85
2024/02/22 00:55:25;;;;;;;1.35;1.13;;;;;;;;;;4991012;28;20048;-84
2024/02/22 00:58:00;;;;;;;3.15;1.35;;;;;;;;;;5009012;28;20053;-84
2024/02/22 01:00:27;;;;;;;1.80;1.08;;;;;;;;;;4991785;28;20065;-85
2024/02/22 01:02:57;;;;;;;3.10;1.20;;;;;;;;;;4999513;28;20522;-84
2024/02/22 01:05:24;;;;;;;2.13;1.25;;;;;;;;;;4995296;28;20053;-85
2024/02/22 01:07:52;;;;;;;3.85;1.35;;;;;;;;;;5014462;28;20519;-84
2024/02/22 01:10:21;;;;;;;1.75;1.13;;;;;;;;;;4986620;28;20537;-84
2024/02/22 01:12:50;;;;;;;1.60;1.48;;;;;;;;;;5004312;28;20088;-84
2024/02/22 01:15:17;;;;;;;1.23;1.13;;;;;;;;;;5015013;28;20610;-85
2024/02/22 01:17:47;;;;;;;1.50;1.40;;;;;;;;;;4985038;28;20046;-85
2024/02/22 01:20:14;;;;;;;1.52;1.40;;;;;;;;;;5008217;28;20453;-84
2024/02/22 01:22:43;;;;;;;4.05;1.60;;;;;;;;;;4993171;28;20042;-84
2024/02/22 01:25:11;;;;;;;1.45;1.35;;;;;;;;;;5006197;28;20049;-85
2024/02/22 01:27:39;;;;;;;1.52;1.40;;;;;;;;;;5008003;28;20101;-84
2024/02/22 01:30:06;;;;;;;1.48;1.38;;;;;;;;;;4993020;28;20042;-84
2024/02/22 01:32:38;;;;;;;1.27;1.15;;;;;;;;;;4999941;28;20047;-84
2024/02/22 01:35:08;;;;;;;1.85;1.20;;;;;;;;;;5000029;28;20052;-83
2024/02/22 01:37:36;;;;;;;2.55;1.17;;;;;;;;;;4989246;28;20392;-84
2024/02/22 01:40:04;;;;;;;2.00;1.20;;;;;;;;;;4999191;28;20046;-83
2024/02/22 01:42:32;;;;;;;1.17;1.05;;;;;;;;;;4988504;28;20499;-83
2024/02/22 01:45:04;;;;;;;1.73;1.30;;;;;;;;;;5011293;28;20104;-84
2024/02/22 01:47:31;;;;;;;0.70;0.70;;;;;;;;;;5002325;28;20053;-85
2024/02/22 01:50:00;;;;;;;1.00;1.00;;;;;;;;;;4998206;28;20050;-83
2024/02/22 01:52:28;;;;;;;2.40;0.98;;;;;;;;;;4992896;28;20054;-84
2024/02/22 01:54:58;;;;;;;0.80;0.80;;;;;;;;;;5016002;28;20049;-84
2024/02/22 01:57:26;;;;;;;1.55;0.75;;;;;;;;;;4995876;28;20048;-84
2024/02/22 01:59:53;;;;;;;0.80;0.80;;;;;;;;;;5007767;28;20104;-83
2024/02/22 02:02:21;;;;;;;0.70;0.70;;;;;;;;;;4993122;28;20050;-83
2024/02/22 02:04:49;;;;;;;2.05;0.93;;;;;;;;;;5017624;28;20495;-84
2024/02/22 02:07:18;;;;;;;0.65;0.60;;;;;;;;;;5003076;28;20078;-83
2024/02/22 02:09:45;;;;;;;0.82;0.82;;;;;;;;;;4999997;28;20057;-82
2024/02/22 02:12:14;;;;;;;0.52;0.52;;;;;;;;;;4993912;28;20058;-85
2024/02/22 02:14:41;;;;;;;0.50;0.50;;;;;;;;;;5005727;28;20068;-83
2024/02/22 02:17:08;;;;;;;1.52;0.70;;;;;;;;;;5010176;28;20078;-84
2024/02/22 02:19:36;;;;;;;0.63;0.60;;;;;;;;;;5006692;28;20042;-84
2024/02/22 02:22:14;;;;;;;0.60;0.60;;;;;;;;;;5000529;28;20054;-83
2024/02/22 02:24:45;;;;;;;1.08;0.70;;;;;;;;;;4999291;28;20085;-83
2024/02/22 02:27:14;;;;;;;1.02;0.50;;;;;;;;;;4991365;28;20523;-84
2024/02/22 02:29:48;;;;;;;0.63;0.45;;;;;;;;;;4981751;28;20055;-84
2024/02/22 02:32:16;;;;;;;0.50;0.50;;;;;;;;;;5007829;28;20450;-85
2024/02/22 02:34:45;;;;;;;0.82;0.63;;;;;;;;;;4995549;28;20047;-84
2024/02/22 02:37:12;;;;;;;0.60;0.60;;;;;;;;;;4993231;28;20520;-84
2024/02/22 02:39:41;;;;;;;0.63;0.60;;;;;;;;;;4992055;28;20050;-84
2024/02/22 02:42:08;;;;;;;0.43;0.43;;;;;;;;;;4986833;28;20092;-84
2024/02/22 02:44:36;;;;;;;0.30;0.30;;;;;;;;;;5007371;28;20081;-84
2024/02/22 02:47:06;;;;;;;0.52;0.50;;;;;;;;;;5012732;28;20046;-86
2024/02/22 02:49:34;;;;;;;0.60;0.60;;;;;;;;;;5002025;28;20109;-84
2024/02/22 02:52:01;;;;;;;1.40;0.40;;;;;;;;;;4990333;28;20050;-85
2024/02/22 02:54:29;;;;;;;0.65;0.50;;;;;;;;;;5002669;28;20090;-85
2024/02/22 02:56:57;;;;;;;0.43;0.43;;;;;;;;;;5007007;28;20101;-84
2024/02/22 02:59:25;;;;;;;0.88;0.50;;;;;;;;;;5002808;28;20046;-84
2024/02/22 03:01:52;;;;;;;0.80;0.40;;;;;;;;;;5010470;28;20057;-84
2024/02/22 03:04:23;;;;;;;0.55;0.55;;;;;;;;;;5010293;28;20081;-84
2024/02/22 03:06:50;;;;;;;1.08;0.70;;;;;;;;;;5004575;28;20058;-82
2024/02/22 03:09:17;;;;;;;0.52;0.40;;;;;;;;;;5004727;28;20500;-84
2024/02/22 03:11:44;;;;;;;0.50;0.50;;;;;;;;;;4993535;28;20050;-84
2024/02/22 03:14:12;;;;;;;0.63;0.63;;;;;;;;;;4998571;28;20096;-83
2024/02/22 03:16:39;;;;;;;1.00;0.82;;;;;;;;;;4998156;28;20073;-83
2024/02/22 03:19:07;;;;;;;0.40;0.40;;;;;;;;;;5004065;28;20054;-84
2024/02/22 03:21:37;;;;;;;0.50;0.50;;;;;;;;;;5015264;28;20388;-84
2024/02/22 03:24:04;;;;;;;1.08;0.70;;;;;;;;;;4990616;28;20082;-84
2024/02/22 03:26:32;;;;;;;0.60;0.60;;;;;;;;;;4995210;28;20423;-83
2024/02/22 03:28:59;;;;;;;0.60;0.60;;;;;;;;;;5000927;28;20077;-85
2024/02/22 03:31:28;;;;;;;0.68;0.50;;;;;;;;;;4995583;28;20110;-84
2024/02/22 03:33:56;;;;;;;0.50;0.50;;;;;;;;;;5012127;28;20053;-83
2024/02/22 03:36:24;;;;;;;1.67;0.60;;;;;;;;;;5004063;28;20046;-83
2024/02/22 03:38:53;;;;;;;0.52;0.52;;;;;;;;;;4997316;28;20047;-84
2024/02/22 03:41:26;;;;;;;0.52;0.40;;;;;;;;;;4995395;28;20057;-85
2024/02/22 03:43:54;;;;;;;0.40;0.40;;;;;;;;;;4993906;28;20065;-83
2024/02/22 03:46:22;;;;;;;1.75;1.50;;;;;;;;;;5004801;28;20096;-83
2024/02/22 03:48:49;;;;;;;0.50;0.50;;;;;;;;;;5003727;28;20058;-84
2024/02/22 03:51:16;;;;;;;1.58;1.50;;;;;;;;;;4993911;28;21454;-84
2024/02/22 03:53:44;;;;;;;2.72;2.53;;;;;;;;;;5004190;28;20060;-83
2024/02/22 03:56:12;;;;;;;2.60;2.40;;;;;;;;;;4998813;28;20081;-83
2024/02/22 03:58:39;;;;;;;2.10;2.00;;;;;;;;;;4992298;28;20050;-83
2024/02/22 04:01:07;;;;;;;0.65;0.65;;;;;;;;;;5001938;28;20081;-84
2024/02/22 04:03:34;;;;;;;0.63;0.63;;;;;;;;;;5012269;28;20050;-84
2024/02/22 04:06:02;;;;;;;2.80;2.58;;;;;;;;;;5003538;28;20075;-83
2024/02/22 04:08:30;;;;;;;27.30;18.30;;;;;;;;;;5011776;28;20050;-83
2024/02/22 04:10:57;;;;;;;1.85;1.13;;;;;;;;;;5019123;28;20049;-82
2024/02/22 04:13:24;;;;;;;0.80;0.80;;;;;;;;;;4992745;28;20418;-83
2024/02/22 04:15:52;;;;;;;0.70;0.70;;;;;;;;;;5008339;28;20132;-83
2024/02/22 04:18:20;;;;;;;0.50;0.50;;;;;;;;;;4990037;28;20050;-83
2024/02/22 04:20:47;;;;;;;0.40;0.40;;;;;;;;;;4987069;28;20057;-84
2024/02/22 04:23:14;;;;;;;0.50;0.50;;;;;;;;;;5009251;28;20046;-82
2024/02/22 04:25:42;;;;;;;0.98;0.90;;;;;;;;;;4998193;28;20076;-82
2024/02/22 04:28:10;;;;;;;2.08;0.52;;;;;;;;;;5011586;28;20092;-83
2024/02/22 04:30:48;;;;;;;0.40;0.40;;;;;;;;;;4999890;28;20084;-83
2024/02/22 04:33:15;;;;;;;0.50;0.50;;;;;;;;;;4985254;28;20455;-83
2024/02/22 04:35:45;;;;;;;0.47;0.47;;;;;;;;;;5009467;28;20042;-83
2024/02/22 04:38:17;;;;;;;0.40;0.40;;;;;;;;;;4987725;28;20111;-83
2024/02/22 04:40:45;;;;;;;0.22;0.22;;;;;;;;;;5004563;28;20050;-82
2024/02/22 04:43:13;;;;;;;0.28;0.28;;;;;;;;;;5024650;28;20451;-84
2024/02/22 04:45:40;;;;;;;0.50;0.40;;;;;;;;;;4989181;28;20089;-83
2024/02/22 04:48:08;;;;;;;1.10;0.40;;;;;;;;;;5005925;28;20049;-83
2024/02/22 04:50:35;;;;;;;0.38;0.38;;;;;;;;;;4992605;28;20100;-83
2024/02/22 04:53:04;;;;;;;0.50;0.50;;;;;;;;;;4999469;28;20053;-83
2024/02/22 04:55:33;;;;;;;0.65;0.50;;;;;;;;;;4989521;28;20073;-82
2024/02/22 04:58:02;;;;;;;0.35;0.35;;;;;;;;;;4989227;28;20423;-82
2024/02/22 05:00:30;;;;;;;0.43;0.35;;;;;;;;;;4986248;28;20062;-82
2024/02/22 05:02:58;;;;;;;0.32;0.32;;;;;;;;;;4986968;28;20452;-83
2024/02/22 05:05:25;;;;;;;0.32;0.32;;;;;;;;;;5004728;28;20057;-82
2024/02/22 05:07:53;;;;;;;0.30;0.30;;;;;;;;;;5016718;28;20532;-83
2024/02/22 05:10:20;;;;;;;0.75;0.40;;;;;;;;;;4991090;28;20496;-83
2024/02/22 05:12:47;;;;;;;0.32;0.32;;;;;;;;;;4991218;28;20061;-82
2024/02/22 05:15:15;;;;;;;0.40;0.40;;;;;;;;;;5003270;28;20073;-83
2024/02/22 05:17:42;;;;;;;0.52;0.52;;;;;;;;;;5002105;28;20098;-84
2024/02/22 05:20:09;;;;;;;0.70;0.70;;;;;;;;;;5003410;28;20050;-83
2024/02/22 05:22:38;;;;;;;0.30;0.30;;;;;;;;;;5020139;28;20053;-83
2024/02/22 05:25:08;;;;;;;0.43;0.43;;;;;;;;;;4996236;28;20058;-83
2024/02/22 05:27:35;;;;;;;0.38;0.38;;;;;;;;;;4983517;28;20054;-84
2024/02/22 05:30:07;;;;;;;0.38;0.20;;;;;;;;;;4994284;28;20495;-83
2024/02/22 05:32:34;;;;;;;0.20;0.20;;;;;;;;;;4998862;28;20542;-84
2024/02/22 05:35:01;;;;;;;0.28;0.28;;;;;;;;;;4990708;28;20072;-84
2024/02/22 05:37:29;;;;;;;1.85;0.40;;;;;;;;;;4991350;28;20393;-85
2024/02/22 05:40:00;;;;;;;0.57;0.20;;;;;;;;;;5009259;28;20084;-84
2024/02/22 05:42:28;;;;;;;0.20;0.20;;;;;;;;;;4991852;28;20051;-84
2024/02/22 05:44:55;;;;;;;1.50;0.20;;;;;;;;;;4998346;28;20407;-82
2024/02/22 05:47:23;;;;;;;0.17;0.17;;;;;;;;;;5010365;28;20499;-84
2024/02/22 05:49:50;;;;;;;1.45;0.30;;;;;;;;;;5005376;28;20053;-83
2024/02/22 05:52:18;;;;;;;0.20;0.20;;;;;;;;;;5005456;28;20068;-84
2024/02/22 05:54:45;;;;;;;0.20;0.20;;;;;;;;;;4995612;28;20499;-84
2024/02/22 05:57:12;;;;;;;0.30;0.30;;;;;;;;;;4997922;28;20096;-85
2024/02/22 05:59:40;;;;;;;0.30;0.30;;;;;;;;;;5010129;28;20112;-84
2024/02/22 06:02:07;;;;;;;0.60;0.60;;;;;;;;;;5004415;28;20061;-84
2024/02/22 06:04:34;;;;;;;1.73;0.40;;;;;;;;;;4997209;28;20100;-84
2024/02/22 06:07:02;;;;;;;0.30;0.30;;;;;;;;;;5012553;28;20129;-84
2024/02/22 06:09:30;;;;;;;0.47;0.47;;;;;;;;;;4996005;28;20050;-84
2024/02/22 06:11:57;;;;;;;0.45;0.45;;;;;;;;;;5011983;28;20049;-84
2024/02/22 06:14:25;;;;;;;0.65;0.63;;;;;;;;;;4997179;28;20042;-84
2024/02/22 06:16:52;;;;;;;1.10;0.50;;;;;;;;;;4996532;28;20133;-84
2024/02/22 06:19:19;;;;;;;0.30;0.30;;;;;;;;;;4987360;28;20101;-83
2024/02/22 06:21:47;;;;;;;0.47;0.47;;;;;;;;;;5020706;28;20046;-84
2024/02/22 06:24:14;;;;;;;1.52;0.60;;;;;;;;;;4996882;28;20051;-84
2024/02/22 06:26:41;;;;;;;0.57;0.50;;;;;;;;;;4996044;28;20073;-85
2024/02/22 06:29:08;;;;;;;0.40;0.40;;;;;;;;;;5013188;28;20477;-84
2024/02/22 06:31:36;;;;;;;0.40;0.40;;;;;;;;;;4996276;28;20056;-84
2024/02/22 06:34:03;;;;;;;1.33;0.73;;;;;;;;;;4995704;28;20089;-84
2024/02/22 06:36:30;;;;;;;0.50;0.50;;;;;;;;;;4992564;28;20058;-85
2024/02/22 06:38:58;;;;;;;0.50;0.50;;;;;;;;;;4992315;28;20046;-84
2024/02/22 06:41:25;;;;;;;0.40;0.40;;;;;;;;;;5011672;28;20050;-84
2024/02/22 06:43:54;;;;;;;0.50;0.50;;;;;;;;;;4996317;28;20146;-84
2024/02/22 06:46:24;;;;;;;0.50;0.50;;;;;;;;;;5007159;28;20046;-83
2024/02/22 06:48:52;;;;;;;1.02;0.35;;;;;;;;;;4988723;28;20508;-83
2024/02/22 06:51:22;;;;;;;0.77;0.50;;;;;;;;;;4989034;28;20058;-83
2024/02/22 06:53:50;;;;;;;0.35;0.30;;;;;;;;;;4989213;28;20145;-82
2024/02/22 06:56:20;;;;;;;0.85;0.45;;;;;;;;;;5005694;28;20053;-83
2024/02/22 06:58:48;;;;;;;0.40;0.40;;;;;;;;;;4989309;28;20516;-82
2024/02/22 07:01:15;;;;;;;0.20;0.20;;;;;;;;;;4999711;28;20050;-83
2024/02/22 07:03:43;;;;;;;0.35;0.35;;;;;;;;;;4994838;28;20056;-83
2024/02/22 07:06:11;;;;;;;1.20;0.50;;;;;;;;;;5004712;28;20391;-83
2024/02/22 07:08:39;;;;;;;0.50;0.50;;;;;;;;;;4994044;28;20050;-83
2024/02/22 07:11:10;;;;;;;0.20;0.20;;;;;;;;;;4994538;28;20061;-83
2024/02/22 07:13:38;;;;;;;1.30;0.77;;;;;;;;;;5020252;28;20069;-83
2024/02/22 07:16:05;;;;;;;2.22;1.98;;;;;;;;;;5006501;28;20049;-83
2024/02/22 07:18:32;;;;;;;0.40;0.40;;;;;;;;;;5009209;28;20073;-83
2024/02/22 07:21:03;;;;;;;0.22;0.22;;;;;;;;;;4992906;28;20068;-83
2024/02/22 07:23:30;;;;;;;0.77;0.30;;;;;;;;;;4992748;28;20100;-83
2024/02/22 07:25:57;;;;;;;0.20;0.20;;;;;;;;;;4994014;28;20084;-83
2024/02/22 07:28:24;;;;;;;0.45;0.45;;;;;;;;;;4993420;28;20045;-82
2024/02/22 07:30:52;;;;;;;0.65;0.40;;;;;;;;;;5001011;28;20065;-83
2024/02/22 07:33:19;;;;;;;0.20;0.20;;;;;;;;;;5000595;28;20050;-84
2024/02/22 07:35:46;;;;;;;0.32;0.10;;;;;;;;;;4991516;28;20061;-83
2024/02/22 07:38:14;;;;;;;0.30;0.30;;;;;;;;;;4990005;28;20041;-82
2024/02/22 07:40:41;;;;;;;0.30;0.30;;;;;;;;;;4999947;28;20061;-83
2024/02/22 07:43:09;;;;;;;0.30;0.30;;;;;;;;;;5027629;28;20045;-84
2024/02/22 07:45:37;;;;;;;0.22;0.20;;;;;;;;;;4992270;28;20053;-83
2024/02/22 07:48:08;;;;;;;0.20;0.20;;;;;;;;;;4990523;28;20049;-83
2024/02/22 07:50:36;;;;;;;0.38;0.38;;;;;;;;;;4988733;28;20092;-83
2024/02/22 07:53:05;;;;;;;0.30;0.30;;;;;;;;;;4981143;28;20113;-83
2024/02/22 07:55:33;;;;;;;0.55;0.20;;;;;;;;;;4991689;28;20045;-82
2024/02/22 07:58:01;;;;;;;0.22;0.20;;;;;;;;;;4983158;28;20046;-83
2024/02/22 08:00:28;;;;;;;0.30;0.30;;;;;;;;;;4991880;28;20053;-84
2024/02/22 08:02:55;;;;;;;0.30;0.30;;;;;;;;;;4990467;28;20046;-83
2024/02/22 08:05:23;;;;;;;0.20;0.20;;;;;;;;;;4991076;28;20058;-83
2024/02/22 08:07:50;;;;;;;0.40;0.25;;;;;;;;;;4991249;28;20137;-84
2024/02/22 08:10:18;;;;;;;0.30;0.22;;;;;;;;;;4988096;28;20105;-83
2024/02/22 08:12:45;;;;;;;0.35;0.20;;;;;;;;;;4987625;28;20057;-83
2024/02/22 08:15:13;;;;;;;0.10;0.10;;;;;;;;;;4989121;28;20057;-84
2024/02/22 08:17:41;;;;;;;0.10;0.10;;;;;;;;;;5010970;28;20109;-83
2024/02/22 08:20:08;;;;;;;1.20;0.25;;;;;;;;;;4999918;28;20050;-83
2024/02/22 08:22:37;;;;;;;0.22;0.10;;;;;;;;;;4988864;28;20419;-83
2024/02/22 08:25:04;;;;;;;0.10;0.10;;;;;;;;;;5004047;28;20088;-83
2024/02/22 08:27:32;;;;;;;0.25;0.25;;;;;;;;;;5005072;28;20118;-84
2024/02/22 08:30:00;;;;;;;0.22;0.10;;;;;;;;;;5012579;28;20054;-83
2024/02/22 08:32:27;;;;;;;0.00;0.00;;;;;;;;;;4991964;28;20054;-83
2024/02/22 08:34:55;;;;;;;0.17;0.10;;;;;;;;;;5023221;28;20046;-83
2024/02/22 08:37:36;;;;;;;0.47;0.00;;;;;;;;;;5005105;28;20050;-83
2024/02/22 08:40:03;;;;;;;0.20;0.20;;;;;;;;;;4999189;28;20053;-83
2024/02/22 08:42:53;;;;;;;0.50;0.10;;;;;;;;;;5005632;28;20045;-82
2024/02/22 08:45:21;;;;;;;0.20;0.20;;;;;;;;;;5000247;28;20049;-83
2024/02/22 08:47:48;;;;;;;0.00;0.00;;;;;;;;;;4998698;28;20457;-83
2024/02/22 08:50:15;;;;;;;0.20;0.20;;;;;;;;;;4989191;28;20532;-84
2024/02/22 08:52:43;;;;;;;0.13;0.13;;;;;;;;;;5000024;28;20486;-82
2024/02/22 08:55:12;;;;;;;0.00;0.00;;;;;;;;;;4991091;28;20077;-83
2024/02/22 08:57:39;;;;;;;0.90;0.10;;;;;;;;;;4989291;28;20057;-84
2024/02/22 09:00:19;;;;;;;0.73;0.10;;;;;;;;;;4992464;28;20058;-83
2024/02/22 09:02:48;;;;;;;0.00;0.00;;;;;;;;;;5008991;28;20053;-83
2024/02/22 09:05:15;;;;;;;8.82;2.25;;;;;;;;;;4988335;28;20053;-83
2024/02/22 09:07:43;;;;;;;0.22;0.10;;;;;;;;;;4988136;28;20554;-84
2024/02/22 09:10:11;;;;;;;0.47;0.40;;;;;;;;;;5008542;28;20061;-84
2024/02/22 09:12:43;;;;;;;0.50;0.50;;;;;;;;;;5004676;28;20076;-84
2024/02/22 09:15:11;;;;;;;0.45;0.20;;;;;;;;;;5008510;28;20065;-85
2024/02/22 09:17:39;;;;;;;0.40;0.40;;;;;;;;;;4994021;28;20078;-84
2024/02/22 09:20:07;;;;;;;0.20;0.20;;;;;;;;;;5002995;28;20076;-84
2024/02/22 09:22:34;;;;;;;0.25;0.20;;;;;;;;;;5008788;28;20050;-84
2024/02/22 09:25:06;;;;;;;0.10;0.10;;;;;;;;;;4995001;28;20140;-84
2024/02/22 09:27:34;;;;;;;0.10;0.10;;;;;;;;;;5011897;28;20469;-85
2024/02/22 09:30:03;;;;;;;0.47;0.10;;;;;;;;;;5003789;28;20530;-84
2024/02/22 09:32:31;;;;;;;0.75;0.22;;;;;;;;;;5005753;28;20049;-85
2024/02/22 09:34:59;;;;;;;0.10;0.10;;;;;;;;;;4998106;28;20081;-84
2024/02/22 09:37:27;;;;;;;0.25;0.25;;;;;;;;;;5013030;28;20574;-84
2024/02/22 09:39:55;;;;;;;0.10;0.10;;;;;;;;;;4997678;28;20050;-83
2024/02/22 09:42:26;;;;;;;0.10;0.10;;;;;;;;;;5019051;28;20466;-84
2024/02/22 09:44:55;;;;;;;0.15;0.10;;;;;;;;;;4993511;28;20050;-84
2024/02/22 09:47:23;;;;;;;0.30;0.20;;;;;;;;;;4997960;28;20554;-84
2024/02/22 09:49:52;;;;;;;0.10;0.10;;;;;;;;;;4989429;28;20050;-84
2024/02/22 09:52:19;;;;;;;0.10;0.10;;;;;;;;;;4996249;28;20097;-85
2024/02/22 09:54:47;;;;;;;0.20;0.20;;;;;;;;;;5001884;28;20074;-84
2024/02/22 09:57:15;;;;;;;0.88;0.10;;;;;;;;;;5000805;28;20049;-84
2024/02/22 09:59:51;;;;;;;0.50;0.50;;;;;;;;;;4994184;28;20056;-84
2024/02/22 10:02:20;;;;;;;0.20;0.20;;;;;;;;;;5011859;28;20087;-84
2024/02/22 10:04:58;;;;;;;0.10;0.10;;;;;;;;;;4993349;28;20108;-84
2024/02/22 10:07:26;;;;;;;0.17;0.17;;;;;;;;;;4998293;28;20146;-84
2024/02/22 10:09:54;;;;;;;1.23;1.20;;;;;;;;;;5014024;28;20507;-84
2024/02/22 10:12:26;;;;;;;0.25;0.10;;;;;;;;;;4994999;28;20574;-84
2024/02/22 10:14:55;;;;;;;1.13;0.15;;;;;;;;;;4996636;28;20069;-83
2024/02/22 10:17:24;;;;;;;1.15;0.30;;;;;;;;;;4988842;28;20499;-83
2024/02/22 10:19:57;;;;;;;0.73;0.73;;;;;;;;;;5015241;28;20050;-84
2024/02/22 10:22:25;;;;;;;1.27;1.27;;;;;;;;;;5000586;28;20072;-85
2024/02/22 10:24:53;;;;;;;0.70;0.25;;;;;;;;;;5007833;28;20057;-83
2024/02/22 10:27:25;;;;;;;0.20;0.20;;;;;;;;;;5000532;28;20512;-86
2024/02/22 10:29:52;;;;;;;0.38;0.30;;;;;;;;;;5021224;23;20053;-91
2024/02/22 10:32:20;;;;;;;0.50;0.43;;;;;;;;;;5023445;28;20053;-92
2024/02/22 10:34:50;;;;;;;0.20;0.20;;;;;;;;;;5010321;28;20088;-93
2024/02/22 10:37:21;;;;;;;0.95;0.20;;;;;;;;;;5010284;28;20054;-92
2024/02/22 10:39:49;;;;;;;0.20;0.20;;;;;;;;;;5029374;28;20462;-91
2024/02/22 10:42:16;;;;;;;0.20;0.20;;;;;;;;;;5014098;28;20095;-92
2024/02/22 10:44:45;;;;;;;0.20;0.20;;;;;;;;;;5013032;28;20050;-92
2024/02/22 10:47:12;;;;;;;0.38;0.38;;;;;;;;;;5010041;28;20049;-91
2024/02/22 10:49:39;;;;;;;0.40;0.40;;;;;;;;;;5012712;28;20482;-92
2024/02/22 10:52:10;;;;;;;2.08;1.95;;;;;;;;;;5007989;28;20046;-93
2024/02/22 10:54:40;;;;;;;0.40;0.40;;;;;;;;;;5009792;28;20481;-91
2024/02/22 10:57:08;;;;;;;0.40;0.10;;;;;;;;;;5008565;28;20103;-93
2024/02/22 10:59:36;;;;;;;0.30;0.30;;;;;;;;;;5006744;28;20049;-91
2024/02/22 11:02:07;;;;;;;0.15;0.15;;;;;;;;;;5007405;28;20418;-91
2024/02/22 11:04:34;;;;;;;0.47;0.22;;;;;;;;;;5018095;28;20409;-91
2024/02/22 11:07:05;;;;;;;0.43;0.20;;;;;;;;;;5009593;28;20518;-91
2024/02/22 11:09:42;;;;;;;0.20;0.20;;;;;;;;;;5009628;28;20045;-92
2024/02/22 11:12:09;;;;;;;0.30;0.22;;;;;;;;;;5014409;28;20050;-91
2024/02/22 11:14:40;;;;;;;0.10;0.10;;;;;;;;;;5011994;28;20046;-93
2024/02/22 11:17:17;;;;;;;0.20;0.20;;;;;;;;;;5017549;28;20103;-90
2024/02/22 11:19:44;;;;;;;0.10;0.10;;;;;;;;;;5009520;28;20129;-91
2024/02/22 11:22:15;;;;;;;0.25;0.10;;;;;;;;;;5007331;28;20049;-92
2024/02/22 11:24:49;;;;;;;0.08;0.08;;;;;;;;;;5013781;28;20049;-92
2024/02/22 11:27:17;;;;;;;0.00;0.00;;;;;;;;;;5009657;28;20144;-91
2024/02/22 11:29:45;;;;;;;0.00;0.00;;;;;;;;;;5012714;28;20058;-91
2024/02/22 11:32:13;;;;;;;0.10;0.10;;;;;;;;;;5004814;28;20104;-92
2024/02/22 11:34:43;;;;;;;0.15;0.10;;;;;;;;;;5005936;28;20457;-87
2024/02/22 11:37:11;;;;;;;0.32;0.10;;;;;;;;;;5003748;28;20045;-91
2024/02/22 11:39:39;;;;;;;0.10;0.10;;;;;;;;;;5002495;28;20047;-91
2024/02/22 11:42:12;;;;;;;0.10;0.10;;;;;;;;;;5006666;28;20050;-91
2024/02/22 11:44:39;;;;;;;0.03;0.03;;;;;;;;;;5025484;28;20073;-88
2024/02/22 11:47:07;;;;;;;0.10;0.10;;;;;;;;;;5015409;28;20383;-89
2024/02/22 11:49:35;;;;;;;1.13;0.10;;;;;;;;;;5002378;28;20042;-90
2024/02/22 11:52:03;;;;;;;0.00;0.00;;;;;;;;;;5003294;28;20050;-90
2024/02/22 11:54:30;;;;;;;0.00;0.00;;;;;;;;;;5006980;28;20058;-89
2024/02/22 11:57:02;;;;;;;0.43;0.10;;;;;;;;;;5005304;28;20100;-89
2024/02/22 11:59:29;;;;;;;0.00;0.00;;;;;;;;;;5013348;28;20053;-90
2024/02/22 12:01:58;;;;;;;0.00;0.00;;;;;;;;;;5005375;28;20435;-90
2024/02/22 12:04:26;;;;;;;0.00;0.00;;;;;;;;;;5014554;28;20049;-91
2024/02/22 12:06:54;;;;;;;0.00;0.00;;;;;;;;;;5006399;28;20050;-91
2024/02/22 12:09:21;;;;;;;0.00;0.00;;;;;;;;;;5014236;28;20145;-89
2024/02/22 12:11:49;;;;;;;0.00;0.00;;;;;;;;;;5008072;28;20082;-90
2024/02/22 12:14:16;;;;;;;0.10;0.10;;;;;;;;;;5005388;28;20125;-92
2024/02/22 12:16:48;;;;;;;0.20;0.20;;;;;;;;;;4997505;28;20058;-89
2024/02/22 12:19:17;;;;;;;0.20;0.00;;;;;;;;;;5022617;28;20112;-91
2024/02/22 12:21:47;;;;;;;0.40;0.40;;;;;;;;;;5016657;28;20478;-90
2024/02/22 12:24:15;;;;;;;0.10;0.10;;;;;;;;;;5014046;28;20046;-91
2024/02/22 12:26:42;;;;;;;0.52;0.52;;;;;;;;;;5005666;28;20049;-90
2024/02/22 12:29:09;;;;;;;0.10;0.10;;;;;;;;;;5005788;28;20103;-88
2024/02/22 12:31:37;;;;;;;0.10;0.10;;;;;;;;;;5022132;28;20052;-89
2024/02/22 12:34:06;;;;;;;0.10;0.10;;;;;;;;;;5013870;28;20045;-88
2024/02/22 12:36:33;;;;;;;0.05;0.05;;;;;;;;;;5008285;28;20057;-92
2024/02/22 12:39:01;;;;;;;0.10;0.10;;;;;;;;;;5024785;28;20486;-90
2024/02/22 12:41:28;;;;;;;0.10;0.10;;;;;;;;;;5008718;28;20050;-90
2024/02/22 12:43:57;;;;;;;0.03;0.03;;;;;;;;;;5008470;28;20471;-90
2024/02/22 12:46:27;;;;;;;0.25;0.10;;;;;;;;;;5004244;28;20050;-90
2024/02/22 12:48:55;;;;;;;0.00;0.00;;;;;;;;;;5004809;28;20061;-90
2024/02/22 12:51:22;;;;;;;0.08;0.08;;;;;;;;;;5004797;28;20084;-89
2024/02/22 12:53:50;;;;;;;0.10;0.00;;;;;;;;;;5004349;28;20058;-90
2024/02/22 12:56:17;;;;;;;0.00;0.00;;;;;;;;;;5006801;28;20054;-88
2024/02/22 12:58:44;;;;;;;0.10;0.10;;;;;;;;;;5019101;28;20050;-89
2024/02/22 13:01:14;;;;;;;0.10;0.00;;;;;;;;;;5023186;28;20267;-90
2024/02/22 13:03:41;;;;;;;0.08;0.00;;;;;;;;;;5012679;28;20123;-89
2024/02/22 13:06:11;;;;;;;0.00;0.00;;;;;;;;;;5021767;28;20088;-90
2024/02/22 13:08:38;;;;;;;0.00;0.00;;;;;;;;;;5004427;28;20068;-91
2024/02/22 13:11:09;;;;;;;0.00;0.00;;;;;;;;;;5006646;28;20046;-89
2024/02/22 13:13:36;;;;;;;0.00;0.00;;;;;;;;;;5026344;28;20409;-89
2024/02/22 13:16:05;;;;;;;0.30;0.00;;;;;;;;;;5006752;28;20076;-87
2024/02/22 13:18:32;;;;;;;0.00;0.00;;;;;;;;;;5003880;28;20062;-89
2024/02/22 13:20:59;;;;;;;0.10;0.10;;;;;;;;;;5004784;28;20042;-91
2024/02/22 13:23:27;;;;;;;0.00;0.00;;;;;;;;;;5007879;28;20103;-91
2024/02/22 13:25:54;;;;;;;0.00;0.00;;;;;;;;;;5008202;28;20054;-90
2024/02/22 13:28:21;;;;;;;0.00;0.00;;;;;;;;;;5013955;28;20054;-87
2024/02/22 13:30:48;;;;;;;0.00;0.00;;;;;;;;;;5004865;28;20054;-90
2024/02/22 13:33:16;;;;;;;0.10;0.00;;;;;;;;;;5006948;28;20491;-89
2024/02/22 13:35:43;;;;;;;0.00;0.00;;;;;;;;;;5008348;28;20067;-90
2024/02/22 13:38:10;;;;;;;0.32;0.00;;;;;;;;;;5006182;28;20061;-89
2024/02/22 13:40:38;;;;;;;0.00;0.00;;;;;;;;;;5004622;28;20076;-91
2024/02/22 13:43:05;;;;;;;1.55;0.10;;;;;;;;;;5013375;28;20050;-91
2024/02/22 13:45:39;;;;;;;0.00;0.00;;;;;;;;;;5008291;28;20046;-90
2024/02/22 13:48:10;;;;;;;0.00;0.00;;;;;;;;;;5006578;28;20054;-90
2024/02/22 13:50:38;;;;;;;0.10;0.10;;;;;;;;;;5010350;28;20133;-92
2024/02/22 13:53:05;;;;;;;0.00;0.00;;;;;;;;;;5008075;28;20104;-89
2024/02/22 13:55:32;;;;;;;0.00;0.00;;;;;;;;;;5011442;28;20479;-89
2024/02/22 13:58:00;;;;;;;0.00;0.00;;;;;;;;;;5012382;28;20046;-90
2024/02/22 14:00:27;;;;;;;0.00;0.00;;;;;;;;;;5012491;28;20513;-90
2024/02/22 14:02:54;;;;;;;0.30;0.00;;;;;;;;;;5000460;28;20058;-89
2024/02/22 14:05:22;;;;;;;0.00;0.00;;;;;;;;;;5015834;28;20053;-89
2024/02/22 14:07:54;;;;;;;0.13;0.00;;;;;;;;;;5015970;28;20054;-88
2024/02/22 14:10:25;;;;;;;0.10;0.05;;;;;;;;;;5015752;28;20088;-87
2024/02/22 14:12:55;;;;;;;0.40;0.00;;;;;;;;;;5016885;28;20120;-90
2024/02/22 14:15:22;;;;;;;0.28;0.10;;;;;;;;;;5023811;28;20054;-89
2024/02/22 14:17:49;;;;;;;0.03;0.03;;;;;;;;;;5005657;28;20486;-89
2024/02/22 14:20:17;;;;;;;0.10;0.10;;;;;;;;;;5006741;28;20510;-88
2024/02/22 14:22:46;;;;;;;0.32;0.10;;;;;;;;;;5007104;28;20046;-91
2024/02/22 14:25:14;;;;;;;0.17;0.10;;;;;;;;;;5007467;28;20050;-90
2024/02/22 14:27:41;;;;;;;0.10;0.10;;;;;;;;;;5010134;28;20050;-90
2024/02/22 14:30:09;;;;;;;0.00;0.00;;;;;;;;;;5005247;28;20098;-91
2024/02/22 14:32:36;;;;;;;0.05;0.05;;;;;;;;;;5007938;28;20042;-91
2024/02/22 14:35:05;;;;;;;0.00;0.00;;;;;;;;;;5006722;28;20128;-89
2024/02/22 14:37:32;;;;;;;0.10;0.10;;;;;;;;;;5011545;28;20514;-89
2024/02/22 14:40:00;;;;;;;0.05;0.05;;;;;;;;;;5004263;28;20050;-89
2024/02/22 14:42:27;;;;;;;0.10;0.10;;;;;;;;;;5015494;28;20494;-89
2024/02/22 14:44:57;;;;;;;0.10;0.00;;;;;;;;;;5007949;28;20458;-90
2024/02/22 14:47:24;;;;;;;0.05;0.05;;;;;;;;;;4999588;28;20046;-90
2024/02/22 14:49:51;;;;;;;2.63;1.42;;;;;;;;;;5007587;28;20120;-92